sensor_id;sensor_type;location;lat;lon;timestamp;P1;durP1;ratioP1;P2;durP2;ratioP2
4597;SDS011;62772;48.646;8.906;2023-11-21T00:03:19;15.23;;;4.80;;
4597;SDS011;62772;48.646;8.906;2023-11-21T00:08:19;9.80;;;5.40;;
4597;SDS011;62772;48.646;8.906;2023-11-21T00:13:20;8.17;;;4.30;;
4597;SDS011;62772;48.646;8.906;2023-11-21T00:18:20;11.10;;;5.07;;
4597;SDS011;62772;48.646;8.906;2023-11-21T00:23:21;8.10;;;3.80;;
4597;SDS011;62772;48.646;8.906;2023-11-21T00:28:21;10.77;;;3.90;;
4597;SDS011;62772;48.646;8.906;2023-11-21T00:33:22;10.90;;;4.07;;
4597;SDS011;62772;48.646;8.906;2023-11-21T00:38:22;6.93;;;3.67;;
4597;SDS011;62772;48.646;8.906;2023-11-21T00:43:23;6.20;;;2.73;;
4597;SDS011;62772;48.646;8.906;2023-11-21T00:48:24;7.27;;;3.17;;
4597;SDS011;62772;48.646;8.906;2023-11-21T00:53:24;6.97;;;3.40;;
4597;SDS011;62772;48.646;8.906;2023-11-21T00:58:25;5.50;;;2.37;;
4597;SDS011;62772;48.646;8.906;2023-11-21T01:03:26;6.30;;;2.87;;
4597;SDS011;62772;48.646;8.906;2023-11-21T01:08:26;5.83;;;2.83;;
4597;SDS011;62772;48.646;8.906;2023-11-21T01:13:27;5.10;;;2.70;;
4597;SDS011;62772;48.646;8.906;2023-11-21T01:18:28;5.10;;;2.53;;
4597;SDS011;62772;48.646;8.906;2023-11-21T01:23:29;4.63;;;2.70;;
4597;SDS011;62772;48.646;8.906;2023-11-21T01:28:30;4.33;;;2.30;;
4597;SDS011;62772;48.646;8.906;2023-11-21T01:33:31;6.60;;;2.50;;
4597;SDS011;62772;48.646;8.906;2023-11-21T01:38:32;8.03;;;2.60;;
4597;SDS011;62772;48.646;8.906;2023-11-21T01:43:34;4.10;;;2.40;;
4597;SDS011;62772;48.646;8.906;2023-11-21T01:48:34;4.00;;;2.60;;
4597;SDS011;62772;48.646;8.906;2023-11-21T01:53:35;6.97;;;3.10;;
4597;SDS011;62772;48.646;8.906;2023-11-21T01:58:36;5.77;;;2.43;;
4597;SDS011;62772;48.646;8.906;2023-11-21T02:03:37;9.77;;;2.90;;
4597;SDS011;62772;48.646;8.906;2023-11-21T02:08:38;4.00;;;2.27;;
4597;SDS011;62772;48.646;8.906;2023-11-21T02:13:38;6.33;;;2.70;;
4597;SDS011;62772;48.646;8.906;2023-11-21T02:18:43;7.63;;;2.27;;
4597;SDS011;62772;48.646;8.906;2023-11-21T02:23:43;4.43;;;2.27;;
4597;SDS011;62772;48.646;8.906;2023-11-21T02:28:44;7.07;;;2.67;;
4597;SDS011;62772;48.646;8.906;2023-11-21T02:33:45;4.70;;;2.40;;
4597;SDS011;62772;48.646;8.906;2023-11-21T02:38:45;7.23;;;2.40;;
4597;SDS011;62772;48.646;8.906;2023-11-21T02:43:46;4.63;;;2.20;;
4597;SDS011;62772;48.646;8.906;2023-11-21T02:48:46;4.00;;;2.33;;
4597;SDS011;62772;48.646;8.906;2023-11-21T02:53:47;4.90;;;2.20;;
4597;SDS011;62772;48.646;8.906;2023-11-21T02:58:47;3.90;;;2.43;;
4597;SDS011;62772;48.646;8.906;2023-11-21T03:03:47;5.43;;;2.27;;
4597;SDS011;62772;48.646;8.906;2023-11-21T03:08:51;5.37;;;3.10;;
4597;SDS011;62772;48.646;8.906;2023-11-21T03:13:51;5.40;;;2.33;;
4597;SDS011;62772;48.646;8.906;2023-11-21T03:18:52;8.23;;;2.60;;
4597;SDS011;62772;48.646;8.906;2023-11-21T03:23:53;4.90;;;2.57;;
4597;SDS011;62772;48.646;8.906;2023-11-21T03:28:53;6.67;;;3.03;;
4597;SDS011;62772;48.646;8.906;2023-11-21T03:33:54;3.67;;;2.33;;
4597;SDS011;62772;48.646;8.906;2023-11-21T03:38:54;4.03;;;2.40;;
4597;SDS011;62772;48.646;8.906;2023-11-21T03:43:56;5.50;;;2.10;;
4597;SDS011;62772;48.646;8.906;2023-11-21T03:48:56;5.37;;;2.70;;
4597;SDS011;62772;48.646;8.906;2023-11-21T03:53:57;2.97;;;2.17;;
4597;SDS011;62772;48.646;8.906;2023-11-21T03:58:57;2.80;;;1.90;;
4597;SDS011;62772;48.646;8.906;2023-11-21T04:03:58;3.50;;;2.23;;
4597;SDS011;62772;48.646;8.906;2023-11-21T04:08:58;5.43;;;2.10;;
4597;SDS011;62772;48.646;8.906;2023-11-21T04:13:59;4.93;;;2.43;;
4597;SDS011;62772;48.646;8.906;2023-11-21T04:18:59;9.60;;;2.53;;
4597;SDS011;62772;48.646;8.906;2023-11-21T04:24:00;4.90;;;2.23;;
4597;SDS011;62772;48.646;8.906;2023-11-21T04:29:00;5.67;;;2.17;;
4597;SDS011;62772;48.646;8.906;2023-11-21T04:34:01;3.30;;;2.17;;
4597;SDS011;62772;48.646;8.906;2023-11-21T04:39:04;3.63;;;2.10;;
4597;SDS011;62772;48.646;8.906;2023-11-21T04:44:05;2.53;;;1.70;;
4597;SDS011;62772;48.646;8.906;2023-11-21T04:49:06;5.20;;;2.77;;
4597;SDS011;62772;48.646;8.906;2023-11-21T04:54:07;4.97;;;2.10;;
4597;SDS011;62772;48.646;8.906;2023-11-21T04:59:07;3.47;;;2.30;;
4597;SDS011;62772;48.646;8.906;2023-11-21T05:04:08;3.23;;;2.10;;
4597;SDS011;62772;48.646;8.906;2023-11-21T05:09:08;4.00;;;2.33;;
4597;SDS011;62772;48.646;8.906;2023-11-21T05:14:12;3.50;;;1.97;;
4597;SDS011;62772;48.646;8.906;2023-11-21T05:19:13;6.23;;;2.40;;
4597;SDS011;62772;48.646;8.906;2023-11-21T05:24:14;3.33;;;2.00;;
4597;SDS011;62772;48.646;8.906;2023-11-21T05:29:14;5.70;;;2.40;;
4597;SDS011;62772;48.646;8.906;2023-11-21T05:34:15;7.30;;;3.07;;
4597;SDS011;62772;48.646;8.906;2023-11-21T05:39:15;4.43;;;2.70;;
4597;SDS011;62772;48.646;8.906;2023-11-21T05:44:17;3.47;;;2.23;;
4597;SDS011;62772;48.646;8.906;2023-11-21T05:49:18;5.27;;;3.00;;
4597;SDS011;62772;48.646;8.906;2023-11-21T05:54:21;3.80;;;2.30;;
4597;SDS011;62772;48.646;8.906;2023-11-21T05:59:23;7.90;;;2.77;;
4597;SDS011;62772;48.646;8.906;2023-11-21T06:04:24;8.40;;;3.30;;
4597;SDS011;62772;48.646;8.906;2023-11-21T06:09:24;4.03;;;2.60;;
4597;SDS011;62772;48.646;8.906;2023-11-21T06:14:25;7.73;;;4.63;;
4597;SDS011;62772;48.646;8.906;2023-11-21T06:19:25;6.20;;;3.70;;
4597;SDS011;62772;48.646;8.906;2023-11-21T06:24:26;6.27;;;3.87;;
4597;SDS011;62772;48.646;8.906;2023-11-21T06:29:26;4.83;;;3.53;;
4597;SDS011;62772;48.646;8.906;2023-11-21T06:34:27;6.20;;;3.13;;
4597;SDS011;62772;48.646;8.906;2023-11-21T06:39:28;7.40;;;3.40;;
4597;SDS011;62772;48.646;8.906;2023-11-21T06:44:28;4.00;;;2.73;;
4597;SDS011;62772;48.646;8.906;2023-11-21T06:49:28;4.77;;;3.27;;
4597;SDS011;62772;48.646;8.906;2023-11-21T06:54:30;6.80;;;3.77;;
4597;SDS011;62772;48.646;8.906;2023-11-21T06:59:31;7.80;;;3.40;;
4597;SDS011;62772;48.646;8.906;2023-11-21T07:04:32;4.80;;;3.40;;
4597;SDS011;62772;48.646;8.906;2023-11-21T07:09:33;6.00;;;4.20;;
4597;SDS011;62772;48.646;8.906;2023-11-21T07:14:34;5.57;;;3.90;;
4597;SDS011;62772;48.646;8.906;2023-11-21T07:19:34;6.60;;;4.20;;
4597;SDS011;62772;48.646;8.906;2023-11-21T07:24:36;7.70;;;4.30;;
4597;SDS011;62772;48.646;8.906;2023-11-21T07:29:36;7.73;;;4.60;;
4597;SDS011;62772;48.646;8.906;2023-11-21T07:34:37;9.97;;;4.50;;
4597;SDS011;62772;48.646;8.906;2023-11-21T07:39:38;8.80;;;4.80;;
4597;SDS011;62772;48.646;8.906;2023-11-21T07:44:42;6.70;;;4.27;;
4597;SDS011;62772;48.646;8.906;2023-11-21T07:49:42;9.70;;;4.60;;
4597;SDS011;62772;48.646;8.906;2023-11-21T07:54:44;5.03;;;3.10;;
4597;SDS011;62772;48.646;8.906;2023-11-21T07:59:44;8.90;;;3.17;;
4597;SDS011;62772;48.646;8.906;2023-11-21T08:04:44;8.63;;;3.63;;
4597;SDS011;62772;48.646;8.906;2023-11-21T08:09:45;5.30;;;3.23;;
4597;SDS011;62772;48.646;8.906;2023-11-21T08:14:46;6.30;;;3.10;;
4597;SDS011;62772;48.646;8.906;2023-11-21T08:19:47;4.97;;;3.20;;
4597;SDS011;62772;48.646;8.906;2023-11-21T08:24:49;9.90;;;3.00;;
4597;SDS011;62772;48.646;8.906;2023-11-21T08:29:50;4.83;;;3.50;;
4597;SDS011;62772;48.646;8.906;2023-11-21T08:34:52;9.70;;;4.33;;
4597;SDS011;62772;48.646;8.906;2023-11-21T08:39:53;5.10;;;3.60;;
4597;SDS011;62772;48.646;8.906;2023-11-21T08:44:53;5.53;;;3.30;;
4597;SDS011;62772;48.646;8.906;2023-11-21T08:49:53;8.30;;;4.70;;
4597;SDS011;62772;48.646;8.906;2023-11-21T08:54:54;13.80;;;7.47;;
4597;SDS011;62772;48.646;8.906;2023-11-21T08:59:59;8.80;;;5.60;;
4597;SDS011;62772;48.646;8.906;2023-11-21T09:05:00;7.00;;;4.33;;
4597;SDS011;62772;48.646;8.906;2023-11-21T09:10:03;6.30;;;4.07;;
4597;SDS011;62772;48.646;8.906;2023-11-21T09:15:06;5.00;;;3.53;;
4597;SDS011;62772;48.646;8.906;2023-11-21T09:20:07;6.90;;;4.57;;
4597;SDS011;62772;48.646;8.906;2023-11-21T09:25:10;6.23;;;4.10;;
4597;SDS011;62772;48.646;8.906;2023-11-21T09:30:11;5.43;;;3.63;;
4597;SDS011;62772;48.646;8.906;2023-11-21T09:35:14;4.80;;;3.60;;
4597;SDS011;62772;48.646;8.906;2023-11-21T09:40:14;6.20;;;4.40;;
4597;SDS011;62772;48.646;8.906;2023-11-21T09:50:31;22.07;;;13.20;;
4597;SDS011;62772;48.646;8.906;2023-11-21T09:55:34;16.20;;;10.30;;
4597;SDS011;62772;48.646;8.906;2023-11-21T10:00:42;9.60;;;7.07;;
4597;SDS011;62772;48.646;8.906;2023-11-21T10:05:44;15.13;;;10.57;;
4597;SDS011;62772;48.646;8.906;2023-11-21T10:10:49;16.07;;;9.90;;
4597;SDS011;62772;48.646;8.906;2023-11-21T10:15:53;8.63;;;4.63;;
4597;SDS011;62772;48.646;8.906;2023-11-21T10:20:54;52.13;;;29.57;;
4597;SDS011;62772;48.646;8.906;2023-11-21T10:25:56;8.00;;;5.07;;
4597;SDS011;62772;48.646;8.906;2023-11-21T10:30:59;6.87;;;4.33;;
4597;SDS011;62772;48.646;8.906;2023-11-21T10:35:59;6.00;;;4.00;;
4597;SDS011;62772;48.646;8.906;2023-11-21T10:41:01;10.20;;;4.63;;
4597;SDS011;62772;48.646;8.906;2023-11-21T10:46:04;12.00;;;4.60;;
4597;SDS011;62772;48.646;8.906;2023-11-21T10:51:06;11.97;;;4.37;;
4597;SDS011;62772;48.646;8.906;2023-11-21T10:56:10;9.30;;;4.40;;
4597;SDS011;62772;48.646;8.906;2023-11-21T11:01:18;4.67;;;2.53;;
4597;SDS011;62772;48.646;8.906;2023-11-21T11:06:21;3.63;;;2.40;;
4597;SDS011;62772;48.646;8.906;2023-11-21T11:11:26;4.03;;;2.40;;
4597;SDS011;62772;48.646;8.906;2023-11-21T11:16:26;2.97;;;2.10;;
4597;SDS011;62772;48.646;8.906;2023-11-21T11:27:11;3.83;;;2.33;;
4597;SDS011;62772;48.646;8.906;2023-11-21T11:32:25;4.00;;;2.33;;
4597;SDS011;62772;48.646;8.906;2023-11-21T11:37:39;3.23;;;2.17;;
4597;SDS011;62772;48.646;8.906;2023-11-21T11:42:39;5.33;;;2.30;;
4597;SDS011;62772;48.646;8.906;2023-11-21T11:47:56;4.67;;;3.03;;
4597;SDS011;62772;48.646;8.906;2023-11-21T11:53:11;4.00;;;2.50;;
4597;SDS011;62772;48.646;8.906;2023-11-21T11:58:15;12.43;;;2.97;;
4597;SDS011;62772;48.646;8.906;2023-11-21T12:03:17;6.03;;;3.30;;
4597;SDS011;62772;48.646;8.906;2023-11-21T12:08:18;4.23;;;2.90;;
4597;SDS011;62772;48.646;8.906;2023-11-21T12:13:20;4.53;;;3.30;;
4597;SDS011;62772;48.646;8.906;2023-11-21T12:18:21;4.83;;;3.53;;
4597;SDS011;62772;48.646;8.906;2023-11-21T12:23:21;7.73;;;3.97;;
4597;SDS011;62772;48.646;8.906;2023-11-21T12:28:22;10.17;;;4.83;;
4597;SDS011;62772;48.646;8.906;2023-11-21T12:33:23;8.37;;;5.20;;
4597;SDS011;62772;48.646;8.906;2023-11-21T12:38:33;7.30;;;5.03;;
4597;SDS011;62772;48.646;8.906;2023-11-21T12:43:34;6.67;;;4.83;;
4597;SDS011;62772;48.646;8.906;2023-11-21T12:48:39;7.47;;;4.90;;
4597;SDS011;62772;48.646;8.906;2023-11-21T12:53:44;7.00;;;5.03;;
4597;SDS011;62772;48.646;8.906;2023-11-21T12:58:45;8.83;;;5.07;;
4597;SDS011;62772;48.646;8.906;2023-11-21T13:03:50;7.90;;;5.97;;
4597;SDS011;62772;48.646;8.906;2023-11-21T13:08:51;11.00;;;6.30;;
4597;SDS011;62772;48.646;8.906;2023-11-21T13:13:52;9.63;;;6.13;;
4597;SDS011;62772;48.646;8.906;2023-11-21T13:18:56;7.97;;;5.23;;
4597;SDS011;62772;48.646;8.906;2023-11-21T13:23:56;10.20;;;6.00;;
4597;SDS011;62772;48.646;8.906;2023-11-21T13:28:57;10.57;;;7.07;;
4597;SDS011;62772;48.646;8.906;2023-11-21T13:33:59;9.67;;;6.60;;
4597;SDS011;62772;48.646;8.906;2023-11-21T13:39:05;14.50;;;8.87;;
4597;SDS011;62772;48.646;8.906;2023-11-21T13:44:08;10.10;;;6.90;;
4597;SDS011;62772;48.646;8.906;2023-11-21T13:49:17;10.90;;;7.30;;
4597;SDS011;62772;48.646;8.906;2023-11-21T13:54:21;8.63;;;6.33;;
4597;SDS011;62772;48.646;8.906;2023-11-21T13:59:24;14.27;;;6.60;;
4597;SDS011;62772;48.646;8.906;2023-11-21T14:04:28;5.70;;;3.37;;
4597;SDS011;62772;48.646;8.906;2023-11-21T14:09:31;4.63;;;3.00;;
4597;SDS011;62772;48.646;8.906;2023-11-21T14:14:36;4.90;;;2.70;;
4597;SDS011;62772;48.646;8.906;2023-11-21T14:19:37;4.20;;;2.70;;
4597;SDS011;62772;48.646;8.906;2023-11-21T14:24:40;5.37;;;3.67;;
4597;SDS011;62772;48.646;8.906;2023-11-21T14:29:45;4.03;;;2.60;;
4597;SDS011;62772;48.646;8.906;2023-11-21T14:34:46;5.50;;;3.10;;
4597;SDS011;62772;48.646;8.906;2023-11-21T14:39:47;6.90;;;3.43;;
4597;SDS011;62772;48.646;8.906;2023-11-21T14:44:49;5.20;;;3.17;;
4597;SDS011;62772;48.646;8.906;2023-11-21T14:49:51;4.43;;;3.33;;
4597;SDS011;62772;48.646;8.906;2023-11-21T14:54:52;5.60;;;3.67;;
4597;SDS011;62772;48.646;8.906;2023-11-21T15:00:13;4.90;;;3.80;;
4597;SDS011;62772;48.646;8.906;2023-11-21T15:05:31;7.33;;;3.70;;
4597;SDS011;62772;48.646;8.906;2023-11-21T15:10:35;6.53;;;4.10;;
4597;SDS011;62772;48.646;8.906;2023-11-21T15:15:46;6.50;;;4.53;;
4597;SDS011;62772;48.646;8.906;2023-11-21T15:20:47;10.90;;;3.97;;
4597;SDS011;62772;48.646;8.906;2023-11-21T15:25:47;6.10;;;4.10;;
4597;SDS011;62772;48.646;8.906;2023-11-21T15:30:47;5.53;;;3.73;;
4597;SDS011;62772;48.646;8.906;2023-11-21T15:35:51;4.83;;;3.60;;
4597;SDS011;62772;48.646;8.906;2023-11-21T15:40:51;5.83;;;3.33;;
4597;SDS011;62772;48.646;8.906;2023-11-21T15:45:52;6.13;;;4.03;;
4597;SDS011;62772;48.646;8.906;2023-11-21T15:50:52;6.47;;;3.40;;
4597;SDS011;62772;48.646;8.906;2023-11-21T15:55:57;5.67;;;3.90;;
4597;SDS011;62772;48.646;8.906;2023-11-21T16:00:58;5.97;;;4.60;;
4597;SDS011;62772;48.646;8.906;2023-11-21T16:05:58;7.90;;;5.70;;
4597;SDS011;62772;48.646;8.906;2023-11-21T16:10:59;9.10;;;6.57;;
4597;SDS011;62772;48.646;8.906;2023-11-21T16:16:00;14.47;;;8.20;;
4597;SDS011;62772;48.646;8.906;2023-11-21T16:21:01;13.03;;;7.20;;
4597;SDS011;62772;48.646;8.906;2023-11-21T16:26:02;15.17;;;7.87;;
4597;SDS011;62772;48.646;8.906;2023-11-21T16:31:05;9.60;;;7.20;;
4597;SDS011;62772;48.646;8.906;2023-11-21T16:36:05;11.87;;;7.53;;
4597;SDS011;62772;48.646;8.906;2023-11-21T16:41:06;13.53;;;8.93;;
4597;SDS011;62772;48.646;8.906;2023-11-21T16:46:09;31.27;;;16.53;;
4597;SDS011;62772;48.646;8.906;2023-11-21T16:51:14;15.43;;;9.17;;
4597;SDS011;62772;48.646;8.906;2023-11-21T16:56:17;14.93;;;8.10;;
4597;SDS011;62772;48.646;8.906;2023-11-21T17:01:18;17.87;;;9.93;;
4597;SDS011;62772;48.646;8.906;2023-11-21T17:06:19;17.13;;;9.63;;
4597;SDS011;62772;48.646;8.906;2023-11-21T17:11:20;21.20;;;10.50;;
4597;SDS011;62772;48.646;8.906;2023-11-21T17:16:20;17.97;;;10.47;;
4597;SDS011;62772;48.646;8.906;2023-11-21T17:21:21;22.97;;;10.77;;
4597;SDS011;62772;48.646;8.906;2023-11-21T17:26:22;18.13;;;10.60;;
4597;SDS011;62772;48.646;8.906;2023-11-21T17:31:22;17.50;;;9.67;;
4597;SDS011;62772;48.646;8.906;2023-11-21T17:36:23;18.57;;;10.97;;
4597;SDS011;62772;48.646;8.906;2023-11-21T17:41:24;17.33;;;9.63;;
4597;SDS011;62772;48.646;8.906;2023-11-21T17:46:25;18.47;;;10.20;;
4597;SDS011;62772;48.646;8.906;2023-11-21T17:51:25;21.40;;;10.70;;
4597;SDS011;62772;48.646;8.906;2023-11-21T17:56:26;23.13;;;11.20;;
4597;SDS011;62772;48.646;8.906;2023-11-21T18:01:26;19.03;;;10.17;;
4597;SDS011;62772;48.646;8.906;2023-11-21T18:06:33;18.37;;;11.03;;
4597;SDS011;62772;48.646;8.906;2023-11-21T18:11:33;18.67;;;10.90;;
4597;SDS011;62772;48.646;8.906;2023-11-21T18:16:34;20.17;;;10.67;;
4597;SDS011;62772;48.646;8.906;2023-11-21T18:21:40;18.27;;;11.40;;
4597;SDS011;62772;48.646;8.906;2023-11-21T18:26:41;26.33;;;12.90;;
4597;SDS011;62772;48.646;8.906;2023-11-21T18:31:41;25.43;;;13.60;;
4597;SDS011;62772;48.646;8.906;2023-11-21T18:36:43;22.00;;;11.70;;
4597;SDS011;62772;48.646;8.906;2023-11-21T18:41:44;21.70;;;12.20;;
4597;SDS011;62772;48.646;8.906;2023-11-21T18:46:45;19.57;;;11.30;;
4597;SDS011;62772;48.646;8.906;2023-11-21T18:51:46;28.83;;;13.97;;
4597;SDS011;62772;48.646;8.906;2023-11-21T18:56:48;26.77;;;14.17;;
4597;SDS011;62772;48.646;8.906;2023-11-21T19:01:48;25.43;;;14.43;;
4597;SDS011;62772;48.646;8.906;2023-11-21T19:06:49;25.20;;;13.83;;
4597;SDS011;62772;48.646;8.906;2023-11-21T19:11:50;35.00;;;14.27;;
4597;SDS011;62772;48.646;8.906;2023-11-21T19:16:51;27.10;;;14.00;;
4597;SDS011;62772;48.646;8.906;2023-11-21T19:21:51;30.67;;;14.30;;
4597;SDS011;62772;48.646;8.906;2023-11-21T19:26:51;24.80;;;13.63;;
4597;SDS011;62772;48.646;8.906;2023-11-21T19:31:52;28.20;;;12.63;;
4597;SDS011;62772;48.646;8.906;2023-11-21T19:36:54;31.87;;;12.30;;
4597;SDS011;62772;48.646;8.906;2023-11-21T19:41:55;23.67;;;12.60;;
4597;SDS011;62772;48.646;8.906;2023-11-21T19:46:55;28.67;;;13.03;;
4597;SDS011;62772;48.646;8.906;2023-11-21T19:51:56;31.30;;;15.17;;
4597;SDS011;62772;48.646;8.906;2023-11-21T19:56:56;31.87;;;15.90;;
4597;SDS011;62772;48.646;8.906;2023-11-21T20:01:56;29.00;;;14.50;;
4597;SDS011;62772;48.646;8.906;2023-11-21T20:06:59;31.37;;;14.50;;
4597;SDS011;62772;48.646;8.906;2023-11-21T20:11:59;28.70;;;13.90;;
4597;SDS011;62772;48.646;8.906;2023-11-21T20:17:00;27.63;;;13.13;;
4597;SDS011;62772;48.646;8.906;2023-11-21T20:22:02;24.57;;;12.70;;
4597;SDS011;62772;48.646;8.906;2023-11-21T20:27:06;32.97;;;14.43;;
4597;SDS011;62772;48.646;8.906;2023-11-21T20:32:07;28.80;;;13.93;;
4597;SDS011;62772;48.646;8.906;2023-11-21T20:37:08;27.27;;;13.90;;
4597;SDS011;62772;48.646;8.906;2023-11-21T20:42:09;35.90;;;13.80;;
4597;SDS011;62772;48.646;8.906;2023-11-21T20:47:10;28.87;;;13.73;;
4597;SDS011;62772;48.646;8.906;2023-11-21T20:52:11;31.60;;;14.00;;
4597;SDS011;62772;48.646;8.906;2023-11-21T20:57:11;28.90;;;14.20;;
4597;SDS011;62772;48.646;8.906;2023-11-21T21:02:12;30.90;;;14.73;;
4597;SDS011;62772;48.646;8.906;2023-11-21T21:07:13;38.77;;;13.27;;
4597;SDS011;62772;48.646;8.906;2023-11-21T21:12:13;31.87;;;12.90;;
4597;SDS011;62772;48.646;8.906;2023-11-21T21:17:14;30.53;;;14.07;;
4597;SDS011;62772;48.646;8.906;2023-11-21T21:22:14;26.40;;;12.13;;
4597;SDS011;62772;48.646;8.906;2023-11-21T21:27:16;26.93;;;12.90;;
4597;SDS011;62772;48.646;8.906;2023-11-21T21:32:16;23.80;;;12.47;;
4597;SDS011;62772;48.646;8.906;2023-11-21T21:37:17;26.50;;;11.50;;
4597;SDS011;62772;48.646;8.906;2023-11-21T21:42:18;25.03;;;12.30;;
4597;SDS011;62772;48.646;8.906;2023-11-21T21:47:18;22.67;;;10.90;;
4597;SDS011;62772;48.646;8.906;2023-11-21T21:52:18;25.10;;;11.57;;
4597;SDS011;62772;48.646;8.906;2023-11-21T21:57:19;29.27;;;12.17;;
4597;SDS011;62772;48.646;8.906;2023-11-21T22:02:19;26.20;;;12.13;;
4597;SDS011;62772;48.646;8.906;2023-11-21T22:07:20;30.33;;;13.17;;
4597;SDS011;62772;48.646;8.906;2023-11-21T22:12:20;30.87;;;14.80;;
4597;SDS011;62772;48.646;8.906;2023-11-21T22:17:21;37.00;;;15.10;;
4597;SDS011;62772;48.646;8.906;2023-11-21T22:22:21;23.60;;;12.07;;
4597;SDS011;62772;48.646;8.906;2023-11-21T22:27:22;24.43;;;10.60;;
4597;SDS011;62772;48.646;8.906;2023-11-21T22:32:23;27.90;;;12.53;;
4597;SDS011;62772;48.646;8.906;2023-11-21T22:37:23;27.63;;;11.50;;
4597;SDS011;62772;48.646;8.906;2023-11-21T22:42:23;23.07;;;11.57;;
4597;SDS011;62772;48.646;8.906;2023-11-21T22:47:24;23.97;;;11.53;;
4597;SDS011;62772;48.646;8.906;2023-11-21T22:52:24;20.17;;;11.27;;
4597;SDS011;62772;48.646;8.906;2023-11-21T22:57:26;18.97;;;9.93;;
4597;SDS011;62772;48.646;8.906;2023-11-21T23:02:26;24.57;;;11.73;;
4597;SDS011;62772;48.646;8.906;2023-11-21T23:07:27;21.50;;;11.50;;
4597;SDS011;62772;48.646;8.906;2023-11-21T23:12:27;34.23;;;12.90;;
4597;SDS011;62772;48.646;8.906;2023-11-21T23:17:28;26.10;;;11.40;;
4597;SDS011;62772;48.646;8.906;2023-11-21T23:22:29;23.83;;;12.70;;
4597;SDS011;62772;48.646;8.906;2023-11-21T23:27:29;26.43;;;11.47;;
4597;SDS011;62772;48.646;8.906;2023-11-21T23:32:30;22.77;;;12.07;;
4597;SDS011;62772;48.646;8.906;2023-11-21T23:37:30;21.10;;;11.03;;
4597;SDS011;62772;48.646;8.906;2023-11-21T23:42:30;23.40;;;10.87;;
4597;SDS011;62772;48.646;8.906;2023-11-21T23:47:31;20.37;;;11.03;;
4597;SDS011;62772;48.646;8.906;2023-11-21T23:52:31;17.63;;;9.63;;
4597;SDS011;62772;48.646;8.906;2023-11-21T23:57:32;20.73;;;10.33;;
